Time;durP1;ratioP1;P1;durP2;ratioP2;P2;SDS_P1;SDS_P2;PMS_P1;PMS_P2;Temp;Humidity;BMP_temperature;BMP_pressure;BME280_temperature;BME280_humidity;BME280_pressure;Samples;Min_cycle;Max_cycle;Signal;HPM_P1;HPM_P2
2023/07/20 00:00:44;;;;;;;7.20;4.55;;;11.80;98.30;;;;;;4982715;28;20394;-72
2023/07/20 00:03:16;;;;;;;8.80;4.72;;;11.80;98.50;;;;;;4988717;28;20129;-71
2023/07/20 00:05:43;;;;;;;9.40;5.18;;;11.80;98.40;;;;;;4985914;28;20360;-72
2023/07/20 00:08:09;;;;;;;12.30;5.60;;;11.80;98.30;;;;;;4980005;28;20039;-71
2023/07/20 00:10:34;;;;;;;10.52;5.43;;;11.90;98.30;;;;;;4988165;28;20036;-71
2023/07/20 00:13:00;;;;;;;10.82;5.22;;;11.90;98.30;;;;;;4987369;28;20139;-74
2023/07/20 00:15:25;;;;;;;9.48;5.15;;;12.00;98.40;;;;;;4985389;28;20095;-72
2023/07/20 00:17:51;;;;;;;11.32;5.90;;;12.00;98.30;;;;;;4980381;28;20479;-71
2023/07/20 00:20:17;;;;;;;11.70;6.47;;;12.10;98.30;;;;;;4982896;28;20475;-71
2023/07/20 00:22:43;;;;;;;12.65;7.47;;;12.10;98.30;;;;;;4987974;28;20465;-72
2023/07/20 00:25:11;;;;;;;12.05;6.57;;;12.10;98.20;;;;;;4988643;28;20050;-71
2023/07/20 00:27:37;;;;;;;10.82;6.28;;;12.10;98.30;;;;;;4988680;28;20438;-71
2023/07/20 00:30:03;;;;;;;13.85;7.82;;;12.20;98.20;;;;;;4988156;28;20030;-72
2023/07/20 00:32:29;;;;;;;13.00;7.10;;;12.20;98.20;;;;;;4988062;28;20034;-72
2023/07/20 00:34:54;;;;;;;12.43;6.57;;;12.30;98.20;;;;;;4988689;28;20492;-72
2023/07/20 00:37:20;;;;;;;12.27;7.20;;;12.30;98.20;;;;;;4982073;28;20114;-71
2023/07/20 00:39:45;;;;;;;12.70;6.55;;;12.30;98.10;;;;;;4985341;28;20086;-72
2023/07/20 00:42:11;;;;;;;10.38;7.18;;;12.40;98.00;;;;;;4988632;28;20125;-72
2023/07/20 00:44:36;;;;;;;12.10;6.85;;;12.40;98.10;;;;;;4987524;28;20026;-72
2023/07/20 00:47:02;;;;;;;10.23;6.60;;;12.40;98.00;;;;;;4987938;28;20173;-73
2023/07/20 00:49:27;;;;;;;10.75;6.22;;;12.40;97.90;;;;;;4980783;28;20112;-71
2023/07/20 00:51:53;;;;;;;10.40;6.20;;;12.50;97.90;;;;;;4986605;28;20096;-71
2023/07/20 00:54:18;;;;;;;9.63;6.68;;;12.50;97.90;;;;;;4991399;28;20045;-71
2023/07/20 00:56:44;;;;;;;10.77;6.18;;;12.50;97.80;;;;;;4993029;28;20053;-72
2023/07/20 00:59:11;;;;;;;10.05;6.05;;;12.60;97.90;;;;;;4986470;28;20046;-72
2023/07/20 01:01:36;;;;;;;11.05;6.22;;;12.60;97.80;;;;;;4983623;28;20030;-71
2023/07/20 01:04:02;;;;;;;9.38;6.25;;;12.60;97.70;;;;;;4986085;28;20050;-72
2023/07/20 01:06:43;;;;;;;9.20;5.93;;;12.60;97.60;;;;;;4984148;28;20049;-72
2023/07/20 01:09:19;;;;;;;8.43;5.35;;;12.60;97.60;;;;;;4984970;28;20511;-72
2023/07/20 01:11:57;;;;;;;8.88;5.72;;;12.60;97.70;;;;;;4986230;28;20233;-71
2023/07/20 01:14:25;;;;;;;7.78;5.50;;;12.70;97.60;;;;;;4989499;28;20041;-73
2023/07/20 01:16:52;;;;;;;8.43;5.63;;;12.70;97.70;;;;;;4985524;28;20018;-73
2023/07/20 01:19:17;;;;;;;9.60;5.93;;;12.80;97.70;;;;;;4979397;28;20050;-73
2023/07/20 01:22:17;;;;;;;10.73;6.20;;;12.80;97.70;;;;;;4981980;28;20053;-72
2023/07/20 01:25:07;;;;;;;9.45;6.22;;;12.80;97.50;;;;;;4975537;28;20105;-73
2023/07/20 01:28:09;;;;;;;8.05;5.20;;;12.80;97.40;;;;;;4981373;28;20427;-72
2023/07/20 01:30:43;;;;;;;8.65;5.50;;;12.90;97.50;;;;;;4983824;28;20038;-72
2023/07/20 01:33:11;;;;;;;10.43;6.43;;;12.90;97.40;;;;;;4978267;28;20439;-74
2023/07/20 01:35:38;;;;;;;11.13;6.13;;;13.00;97.60;;;;;;4982102;28;20029;-72
2023/07/20 01:38:04;;;;;;;7.97;5.70;;;13.00;97.60;;;;;;4985656;28;20103;-72
2023/07/20 01:40:30;;;;;;;11.25;6.68;;;13.00;97.80;;;;;;4981730;28;20053;-72
2023/07/20 01:42:56;;;;;;;8.75;5.75;;;13.00;97.90;;;;;;4987751;28;20034;-72
2023/07/20 01:45:21;;;;;;;7.28;5.40;;;13.00;98.10;;;;;;4987367;28;20486;-71
2023/07/20 01:47:47;;;;;;;11.77;4.82;;;12.90;98.10;;;;;;4986621;28;20030;-71
2023/07/20 01:50:12;;;;;;;8.73;5.18;;;12.90;98.20;;;;;;4980920;28;20050;-74
2023/07/20 01:52:38;;;;;;;6.95;4.90;;;12.90;98.40;;;;;;4982491;28;20050;-73
2023/07/20 01:55:04;;;;;;;8.10;4.80;;;12.90;98.50;;;;;;4985988;28;20087;-72
2023/07/20 01:57:30;;;;;;;7.28;4.25;;;13.00;98.60;;;;;;4976543;28;20034;-73
2023/07/20 01:59:55;;;;;;;6.93;4.22;;;13.00;98.60;;;;;;4985427;28;20114;-73
2023/07/20 02:02:21;;;;;;;8.05;3.97;;;12.90;98.60;;;;;;4982143;28;20077;-72
2023/07/20 02:04:46;;;;;;;6.22;3.50;;;12.80;98.70;;;;;;4985754;28;20446;-71
2023/07/20 02:07:12;;;;;;;7.15;3.85;;;12.90;98.70;;;;;;4986386;28;20045;-72
2023/07/20 02:09:37;;;;;;;6.22;4.20;;;12.80;98.80;;;;;;4983728;28;20053;-72
2023/07/20 02:12:03;;;;;;;12.05;4.82;;;12.90;98.90;;;;;;4984497;28;20419;-71
2023/07/20 02:14:28;;;;;;;7.65;4.80;;;12.90;98.90;;;;;;4983192;28;20034;-70
2023/07/20 02:16:57;;;;;;;9.45;4.72;;;12.90;98.90;;;;;;4977061;28;20022;-70
2023/07/20 02:19:25;;;;;;;10.40;5.25;;;12.90;99.00;;;;;;4982368;28;20034;-71
2023/07/20 02:21:50;;;;;;;8.77;5.47;;;12.90;99.00;;;;;;4983582;28;20042;-73
2023/07/20 02:24:16;;;;;;;8.35;5.57;;;12.90;99.10;;;;;;4982053;28;20070;-71
2023/07/20 02:26:42;;;;;;;11.50;6.13;;;13.00;99.10;;;;;;4983947;28;20062;-74
2023/07/20 02:29:07;;;;;;;10.68;6.40;;;12.90;99.00;;;;;;4984014;28;20081;-71
2023/07/20 02:31:33;;;;;;;9.20;6.00;;;13.00;99.20;;;;;;4985327;28;20125;-76
2023/07/20 02:33:58;;;;;;;11.45;6.22;;;12.90;99.10;;;;;;4982800;28;20275;-71
2023/07/20 02:36:24;;;;;;;8.45;5.90;;;12.90;99.10;;;;;;4985504;28;20148;-71
2023/07/20 02:38:49;;;;;;;8.35;5.45;;;12.90;99.10;;;;;;4986224;28;20046;-72
2023/07/20 02:41:15;;;;;;;10.52;5.63;;;12.90;99.20;;;;;;4988860;28;20036;-72
2023/07/20 02:43:40;;;;;;;8.90;5.65;;;12.90;99.30;;;;;;4989719;28;20046;-73
2023/07/20 02:46:06;;;;;;;11.15;5.45;;;13.00;99.30;;;;;;4986326;28;20041;-71
2023/07/20 02:48:31;;;;;;;10.55;5.40;;;13.00;99.30;;;;;;4989881;28;20036;-72
2023/07/20 02:50:57;;;;;;;10.07;5.80;;;13.00;99.20;;;;;;4983295;28;20126;-72
2023/07/20 02:53:22;;;;;;;8.20;5.13;;;13.00;99.30;;;;;;4991809;28;20427;-72
2023/07/20 02:55:48;;;;;;;8.45;4.93;;;13.00;99.30;;;;;;4986499;28;20144;-72
2023/07/20 02:58:13;;;;;;;8.68;5.28;;;13.00;99.30;;;;;;4993117;28;20033;-72
2023/07/20 03:00:39;;;;;;;8.95;5.63;;;13.00;99.40;;;;;;4984753;28;20392;-72
2023/07/20 03:03:09;;;;;;;10.75;5.13;;;13.10;99.50;;;;;;4983204;28;20035;-72
2023/07/20 03:05:35;;;;;;;9.67;5.30;;;13.00;99.30;;;;;;4982843;28;20026;-73
2023/07/20 03:08:02;;;;;;;9.18;5.60;;;13.10;99.40;;;;;;4990392;28;20412;-71
2023/07/20 03:10:28;;;;;;;15.10;5.72;;;13.10;99.40;;;;;;4990010;28;20097;-71
2023/07/20 03:12:53;;;;;;;10.13;6.00;;;13.10;99.40;;;;;;4990111;28;20136;-73
2023/07/20 03:15:19;;;;;;;10.25;5.50;;;13.00;99.40;;;;;;4984723;28;20147;-72
2023/07/20 03:17:44;;;;;;;8.70;5.80;;;13.10;99.50;;;;;;4990794;28;20030;-71
2023/07/20 03:20:10;;;;;;;11.10;6.63;;;13.10;99.50;;;;;;4985804;28;20050;-72
2023/07/20 03:22:36;;;;;;;11.73;6.10;;;13.20;99.60;;;;;;4983309;28;20026;-74
2023/07/20 03:25:01;;;;;;;11.18;6.97;;;13.10;99.50;;;;;;4986489;28;20043;-72
2023/07/20 03:27:29;;;;;;;9.55;6.20;;;13.10;99.40;;;;;;4990237;28;20403;-71
2023/07/20 03:29:54;;;;;;;9.35;6.28;;;13.20;99.50;;;;;;4990806;28;20041;-72
2023/07/20 03:32:19;;;;;;;15.05;6.72;;;13.10;99.50;;;;;;4985969;28;20034;-73
2023/07/20 03:34:45;;;;;;;10.57;7.00;;;13.10;99.50;;;;;;4996129;28;20030;-74
2023/07/20 03:37:11;;;;;;;10.23;6.45;;;13.10;99.40;;;;;;4991939;28;20049;-73
2023/07/20 03:39:36;;;;;;;13.38;6.90;;;13.10;99.50;;;;;;4989404;28;20038;-72
2023/07/20 03:42:02;;;;;;;10.88;6.93;;;13.10;99.50;;;;;;4989386;28;20143;-71
2023/07/20 03:44:27;;;;;;;13.60;7.40;;;13.00;99.40;;;;;;4986392;28;20466;-71
2023/07/20 03:46:53;;;;;;;12.02;6.53;;;13.10;99.50;;;;;;4988455;28;20058;-72
2023/07/20 03:49:18;;;;;;;14.13;7.57;;;13.10;99.50;;;;;;4980832;28;20070;-74
2023/07/20 03:51:44;;;;;;;14.25;7.55;;;13.20;99.60;;;;;;4982517;28;20082;-73
2023/07/20 03:54:09;;;;;;;12.48;7.72;;;13.20;99.60;;;;;;4989914;28;20323;-71
2023/07/20 03:56:35;;;;;;;15.98;7.75;;;13.20;99.60;;;;;;4985294;28;20035;-77
2023/07/20 03:59:01;;;;;;;13.02;7.60;;;13.20;99.60;;;;;;5005318;28;20039;-74
2023/07/20 04:01:26;;;;;;;15.77;8.07;;;13.20;99.60;;;;;;4997049;28;20057;-72
2023/07/20 04:03:52;;;;;;;11.95;8.20;;;13.20;99.60;;;;;;4987795;28;20045;-72
2023/07/20 04:06:17;;;;;;;16.63;8.27;;;13.20;99.50;;;;;;4989686;28;20442;-74
2023/07/20 04:08:44;;;;;;;11.02;7.53;;;13.20;99.60;;;;;;4990867;28;20034;-71
2023/07/20 04:11:09;;;;;;;14.88;8.57;;;13.30;99.60;;;;;;4986908;28;20114;-72
2023/07/20 04:13:34;;;;;;;12.07;7.75;;;13.30;99.60;;;;;;4998378;28;20109;-73
2023/07/20 04:16:00;;;;;;;10.55;8.25;;;13.30;99.60;;;;;;4982830;28;20359;-72
2023/07/20 04:18:26;;;;;;;11.55;7.68;;;13.40;99.60;;;;;;4987157;28;20054;-76
2023/07/20 04:20:51;;;;;;;12.80;8.52;;;13.30;99.60;;;;;;4984979;28;20042;-72
2023/07/20 04:23:17;;;;;;;11.77;7.63;;;13.30;99.50;;;;;;4988743;28;20027;-72
2023/07/20 04:25:42;;;;;;;12.90;7.00;;;13.30;99.50;;;;;;4979518;28;20034;-71
2023/07/20 04:28:11;;;;;;;11.35;7.53;;;13.30;99.50;;;;;;4990263;28;20743;-68
2023/07/20 04:30:39;;;;;;;12.18;7.60;;;13.40;99.60;;;;;;4999048;28;20034;-69
2023/07/20 04:33:04;;;;;;;13.80;7.72;;;13.40;99.50;;;;;;5000436;28;20021;-67
2023/07/20 04:35:49;;;;;;;10.02;7.20;;;13.40;99.50;;;;;;4982896;28;20053;-68
2023/07/20 04:38:17;;;;;;;10.02;7.50;;;13.40;99.50;;;;;;4987693;28;20044;-71
2023/07/20 04:40:44;;;;;;;10.00;6.90;;;13.40;99.50;;;;;;4989146;28;20041;-67
2023/07/20 04:43:10;;;;;;;11.32;7.50;;;13.50;99.60;;;;;;4993901;28;20030;-67
2023/07/20 04:45:35;;;;;;;12.75;7.30;;;13.50;99.50;;;;;;4986138;28;20041;-69
2023/07/20 04:48:01;;;;;;;11.18;7.60;;;13.40;99.50;;;;;;4983186;28;20102;-67
2023/07/20 04:50:26;;;;;;;10.02;6.95;;;13.50;99.50;;;;;;4985495;28;20398;-69
2023/07/20 04:52:53;;;;;;;12.50;7.20;;;13.50;99.50;;;;;;4983850;28;20038;-67
2023/07/20 04:55:18;;;;;;;11.73;7.82;;;13.50;99.40;;;;;;4980544;28;20045;-68
2023/07/20 04:57:44;;;;;;;11.80;6.90;;;13.60;99.40;;;;;;4987374;28;20049;-67
2023/07/20 05:00:11;;;;;;;10.05;6.43;;;13.60;99.40;;;;;;4984278;28;20466;-67
2023/07/20 05:02:37;;;;;;;11.13;7.28;;;13.60;99.30;;;;;;4984327;28;20443;-67
2023/07/20 05:05:05;;;;;;;8.80;6.00;;;13.70;99.30;;;;;;4985315;28;20037;-71
2023/07/20 05:07:31;;;;;;;8.50;6.50;;;13.70;99.30;;;;;;4979877;28;20401;-68
2023/07/20 05:09:57;;;;;;;10.35;6.32;;;13.60;99.10;;;;;;4981234;28;20073;-67
2023/07/20 05:12:22;;;;;;;8.80;6.15;;;13.70;99.20;;;;;;4982232;28;20450;-68
2023/07/20 05:14:47;;;;;;;9.90;6.20;;;13.70;99.30;;;;;;4983577;28;20022;-67
2023/07/20 05:17:13;;;;;;;8.52;5.78;;;13.80;99.20;;;;;;4990767;28;20042;-68
2023/07/20 05:19:38;;;;;;;7.80;5.32;;;13.80;99.10;;;;;;4986280;28;20068;-68
2023/07/20 05:22:05;;;;;;;8.32;6.00;;;13.80;99.00;;;;;;4992878;28;20047;-71
2023/07/20 05:24:31;;;;;;;7.95;5.90;;;13.80;99.00;;;;;;4985459;28;20037;-67
2023/07/20 05:26:58;;;;;;;9.02;5.82;;;13.80;99.10;;;;;;4983323;28;20109;-68
2023/07/20 05:29:23;;;;;;;8.98;5.97;;;13.80;99.00;;;;;;4984368;28;20038;-67
2023/07/20 05:31:49;;;;;;;8.45;6.28;;;13.90;99.00;;;;;;4981693;28;20529;-67
2023/07/20 05:34:14;;;;;;;11.93;6.35;;;14.00;99.00;;;;;;4987338;28;20026;-68
2023/07/20 05:36:40;;;;;;;9.25;6.78;;;14.00;99.00;;;;;;4981684;28;20049;-68
2023/07/20 05:39:05;;;;;;;8.73;6.55;;;14.00;98.90;;;;;;4986021;28;20084;-69
2023/07/20 05:41:30;;;;;;;11.82;6.45;;;14.00;98.70;;;;;;4988451;28;20066;-68
2023/07/20 05:43:56;;;;;;;7.63;6.65;;;14.00;98.60;;;;;;4987131;28;20060;-67
2023/07/20 05:46:21;;;;;;;8.20;6.47;;;13.90;98.50;;;;;;4984057;28;20038;-69
2023/07/20 05:48:47;;;;;;;8.90;6.97;;;13.90;98.70;;;;;;4985267;28;20045;-69
2023/07/20 05:51:12;;;;;;;10.20;7.22;;;14.00;98.70;;;;;;4981536;28;20022;-67
2023/07/20 05:53:38;;;;;;;10.18;7.80;;;14.00;98.60;;;;;;4982017;28;20113;-67
2023/07/20 05:56:04;;;;;;;12.32;7.75;;;14.20;98.70;;;;;;4980229;28;20075;-69
2023/07/20 05:58:29;;;;;;;9.70;7.15;;;14.30;98.40;;;;;;4978914;28;20027;-69
2023/07/20 06:00:55;;;;;;;10.52;8.32;;;14.20;98.20;;;;;;4984745;28;20459;-72
2023/07/20 06:03:23;;;;;;;9.98;7.70;;;14.40;98.20;;;;;;4984917;28;20058;-69
2023/07/20 06:05:48;;;;;;;11.35;7.32;;;14.40;98.10;;;;;;4983443;28;20094;-68
2023/07/20 06:08:14;;;;;;;9.85;7.13;;;14.40;98.10;;;;;;4985877;28;20342;-68
2023/07/20 06:10:39;;;;;;;9.65;7.30;;;14.50;98.00;;;;;;4979351;28;20115;-68
2023/07/20 06:13:05;;;;;;;9.23;7.03;;;14.50;97.90;;;;;;4976409;28;20034;-68
2023/07/20 06:15:38;;;;;;;9.70;6.60;;;14.60;97.80;;;;;;4974395;28;20026;-68
2023/07/20 06:18:03;;;;;;;8.80;7.07;;;14.60;97.50;;;;;;4985481;28;20474;-65
2023/07/20 06:20:29;;;;;;;7.90;5.85;;;14.60;97.10;;;;;;4977819;28;20038;-69
2023/07/20 06:22:55;;;;;;;7.68;6.13;;;14.70;97.10;;;;;;4979293;28;20053;-65
2023/07/20 06:25:21;;;;;;;8.75;6.07;;;14.90;97.10;;;;;;4987068;28;20038;-69
2023/07/20 06:27:46;;;;;;;6.70;5.25;;;15.00;96.40;;;;;;4994000;28;20128;-68
2023/07/20 06:30:12;;;;;;;8.40;5.10;;;15.10;95.50;;;;;;4984242;28;20165;-66
2023/07/20 06:32:38;;;;;;;8.77;4.53;;;15.30;95.70;;;;;;4980573;28;20451;-71
2023/07/20 06:35:04;;;;;;;6.28;4.18;;;15.30;95.20;;;;;;4980138;28;20038;-70
2023/07/20 06:37:29;;;;;;;4.95;3.10;;;15.40;94.80;;;;;;4971307;28;20041;-67
2023/07/20 06:39:55;;;;;;;5.90;2.90;;;15.40;95.10;;;;;;4984172;28;20533;-68
2023/07/20 06:42:20;;;;;;;7.70;2.75;;;15.50;94.20;;;;;;4985048;28;20176;-67
2023/07/20 06:44:46;;;;;;;6.35;2.70;;;15.60;93.50;;;;;;4990675;28;20030;-67
2023/07/20 06:47:12;;;;;;;6.68;2.10;;;15.80;92.40;;;;;;4981919;28;20459;-68
2023/07/20 06:49:37;;;;;;;3.72;1.95;;;15.90;92.20;;;;;;4986668;28;20029;-70
2023/07/20 06:52:03;;;;;;;2.78;1.73;;;15.70;92.50;;;;;;4984397;28;20034;-69
2023/07/20 06:54:28;;;;;;;3.30;1.40;;;16.10;91.30;;;;;;4987802;28;20026;-69
2023/07/20 06:56:54;;;;;;;3.83;1.42;;;16.30;89.30;;;;;;4984518;28;20071;-67
2023/07/20 06:59:21;;;;;;;3.28;1.27;;;16.40;88.80;;;;;;4986223;28;20118;-69
2023/07/20 07:01:46;;;;;;;2.65;1.15;;;16.40;88.80;;;;;;4981178;28;20363;-68
2023/07/20 07:04:12;;;;;;;2.78;1.25;;;16.40;88.70;;;;;;4983089;28;20030;-68
2023/07/20 07:06:37;;;;;;;1.95;1.10;;;16.30;88.90;;;;;;4982981;28;20037;-68
2023/07/20 07:09:03;;;;;;;2.58;1.45;;;16.00;87.20;;;;;;4983852;28;20082;-67
2023/07/20 07:11:29;;;;;;;3.95;1.20;;;16.10;88.80;;;;;;4981418;28;20034;-70
2023/07/20 07:13:54;;;;;;;2.85;1.33;;;16.10;89.10;;;;;;4980603;28;20058;-67
2023/07/20 07:16:20;;;;;;;1.40;1.13;;;16.10;88.20;;;;;;4979395;28;20057;-67
2023/07/20 07:18:46;;;;;;;2.85;1.50;;;16.10;89.10;;;;;;4990787;28;20104;-69
2023/07/20 07:21:11;;;;;;;3.22;1.30;;;16.20;89.10;;;;;;4978089;28;20469;-68
2023/07/20 07:23:38;;;;;;;2.15;1.10;;;16.40;89.30;;;;;;4985671;28;20034;-68
2023/07/20 07:26:04;;;;;;;1.50;0.82;;;16.90;86.70;;;;;;4993144;28;20060;-68
2023/07/20 07:28:29;;;;;;;4.65;1.15;;;16.90;87.40;;;;;;4989797;28;20117;-68
2023/07/20 07:30:56;;;;;;;2.53;1.00;;;17.00;85.70;;;;;;4984294;28;20034;-68
2023/07/20 07:33:22;;;;;;;2.65;0.90;;;16.90;85.10;;;;;;4991794;28;20102;-69
2023/07/20 07:35:49;;;;;;;4.40;0.98;;;17.00;85.10;;;;;;4989454;28;20415;-67
2023/07/20 07:38:14;;;;;;;5.10;1.10;;;17.10;84.80;;;;;;4974602;28;20093;-67
2023/07/20 07:40:40;;;;;;;4.57;1.00;;;17.00;83.40;;;;;;4985758;28;20034;-67
2023/07/20 07:43:05;;;;;;;5.10;1.10;;;16.80;83.10;;;;;;4983490;28;20450;-67
2023/07/20 07:45:35;;;;;;;2.90;1.10;;;16.60;83.00;;;;;;4983522;28;20505;-67
2023/07/20 07:48:01;;;;;;;4.53;1.27;;;16.50;83.10;;;;;;4985651;28;20041;-67
2023/07/20 07:50:27;;;;;;;6.28;1.02;;;16.70;83.10;;;;;;4982905;28;20026;-67
2023/07/20 07:52:52;;;;;;;1.38;0.65;;;16.90;83.50;;;;;;4982807;28;20015;-67
2023/07/20 07:55:18;;;;;;;1.73;0.70;;;17.00;82.80;;;;;;4982458;28;20136;-68
2023/07/20 07:57:43;;;;;;;5.47;1.10;;;16.80;81.00;;;;;;4987271;28;20042;-67
2023/07/20 08:00:14;;;;;;;7.57;0.90;;;17.10;81.30;;;;;;4993632;28;20409;-68
2023/07/20 08:02:43;;;;;;;6.43;1.30;;;17.30;79.10;;;;;;4993438;28;20425;-68
2023/07/20 08:05:09;;;;;;;1.52;0.80;;;17.20;78.60;;;;;;4984711;28;20030;-70
2023/07/20 08:07:35;;;;;;;4.53;0.88;;;17.30;77.00;;;;;;4983245;28;20053;-67
2023/07/20 08:10:00;;;;;;;3.65;0.90;;;17.70;78.10;;;;;;4982614;28;20092;-68
2023/07/20 08:12:26;;;;;;;3.72;1.10;;;17.50;77.40;;;;;;4983366;28;20030;-69
2023/07/20 08:14:51;;;;;;;2.25;0.90;;;17.70;77.10;;;;;;4986663;28;20022;-68
2023/07/20 08:17:17;;;;;;;3.60;1.10;;;17.80;75.80;;;;;;4984380;28;20030;-67
2023/07/20 08:19:44;;;;;;;2.80;0.88;;;18.10;75.00;;;;;;4987646;28;20090;-69
2023/07/20 08:22:09;;;;;;;1.63;0.95;;;18.20;74.90;;;;;;4980740;28;20153;-68
2023/07/20 08:24:39;;;;;;;2.97;0.85;;;17.90;75.30;;;;;;4983823;28;20113;-67
2023/07/20 08:27:04;;;;;;;4.50;1.02;;;17.50;74.90;;;;;;4983198;28;20041;-68
2023/07/20 08:29:30;;;;;;;4.38;1.08;;;17.20;74.20;;;;;;4981834;28;20042;-67
2023/07/20 08:31:55;;;;;;;1.95;0.85;;;17.60;73.60;;;;;;4982376;28;20079;-67
2023/07/20 08:34:21;;;;;;;2.55;1.00;;;18.30;74.20;;;;;;4983095;28;20058;-68
2023/07/20 08:36:46;;;;;;;6.97;1.10;;;18.40;73.60;;;;;;4976410;28;20018;-67
2023/07/20 08:39:12;;;;;;;4.15;0.90;;;18.10;72.00;;;;;;4986619;28;20474;-67
2023/07/20 08:41:39;;;;;;;2.88;0.82;;;17.70;73.40;;;;;;4983751;28;20034;-68
2023/07/20 08:44:05;;;;;;;2.58;1.05;;;17.70;75.50;;;;;;4984845;28;20480;-67
2023/07/20 08:46:31;;;;;;;3.65;0.85;;;18.40;74.50;;;;;;4978366;28;20030;-68
2023/07/20 08:48:58;;;;;;;2.40;0.90;;;18.90;73.40;;;;;;4986473;28;20429;-69
2023/07/20 08:51:24;;;;;;;3.88;1.10;;;18.40;73.30;;;;;;4987635;28;20034;-67
2023/07/20 08:53:51;;;;;;;3.92;1.00;;;17.80;76.70;;;;;;4988843;28;20053;-67
2023/07/20 08:56:18;;;;;;;6.20;1.27;;;17.30;75.70;;;;;;4984148;28;20764;-67
2023/07/20 08:58:45;;;;;;;4.65;1.40;;;16.90;77.20;;;;;;4986753;28;20433;-70
2023/07/20 09:01:11;;;;;;;3.80;1.17;;;16.90;76.10;;;;;;4986779;28;20034;-67
2023/07/20 09:03:39;;;;;;;3.58;1.10;;;17.30;76.90;;;;;;4985209;28;20073;-68
2023/07/20 09:06:05;;;;;;;2.63;1.13;;;18.00;76.40;;;;;;4980220;28;20042;-71
2023/07/20 09:08:31;;;;;;;5.40;1.27;;;18.60;73.80;;;;;;4987397;28;20031;-67
2023/07/20 09:10:57;;;;;;;4.00;1.10;;;18.90;71.70;;;;;;4985467;28;20372;-71
2023/07/20 09:13:25;;;;;;;4.10;1.45;;;18.90;73.10;;;;;;4985927;28;20045;-67
2023/07/20 09:15:54;;;;;;;5.13;1.10;;;19.00;72.50;;;;;;4975747;28;20125;-67
2023/07/20 09:18:28;;;;;;;5.28;1.20;;;18.70;71.80;;;;;;4977741;28;20042;-67
2023/07/20 09:20:59;;;;;;;6.68;1.50;;;18.20;73.10;;;;;;4984200;28;20082;-67
2023/07/20 09:23:35;;;;;;;5.00;1.35;;;17.80;74.50;;;;;;4981287;28;20022;-66
2023/07/20 09:26:10;;;;;;;7.72;1.40;;;18.40;74.20;;;;;;4984623;28;20042;-67
2023/07/20 09:28:51;;;;;;;4.32;1.15;;;19.00;73.70;;;;;;4979239;28;20432;-68
2023/07/20 09:31:18;;;;;;;4.22;1.25;;;18.80;73.20;;;;;;4982223;28;20083;-66
2023/07/20 09:33:45;;;;;;;4.28;1.48;;;18.90;72.60;;;;;;4985385;28;20129;-68
2023/07/20 09:36:13;;;;;;;6.88;1.50;;;18.70;71.30;;;;;;4980774;28;20479;-69
2023/07/20 09:38:41;;;;;;;5.47;1.33;;;19.20;71.40;;;;;;4983123;28;20126;-67
2023/07/20 09:41:07;;;;;;;2.38;1.00;;;19.20;70.30;;;;;;4987259;28;20026;-67
2023/07/20 09:43:34;;;;;;;4.95;1.50;;;19.60;71.10;;;;;;4982316;28;20030;-67
2023/07/20 09:46:00;;;;;;;5.45;1.10;;;20.00;68.80;;;;;;4985963;28;20303;-66
2023/07/20 09:48:26;;;;;;;2.15;0.98;;;20.20;64.70;;;;;;4987123;28;20030;-66
2023/07/20 09:50:53;;;;;;;4.63;1.05;;;19.70;65.00;;;;;;4981866;28;20038;-68
2023/07/20 09:53:19;;;;;;;4.05;1.33;;;19.10;68.90;;;;;;4979695;28;20072;-67
2023/07/20 09:55:47;;;;;;;2.10;0.95;;;17.90;75.20;;;;;;4986265;28;20041;-67
2023/07/20 09:58:12;;;;;;;5.63;1.45;;;17.10;82.30;;;;;;4980295;28;20330;-66
2023/07/20 10:00:39;;;;;;;4.57;1.25;;;16.60;85.10;;;;;;4982461;28;20034;-68
2023/07/20 10:03:06;;;;;;;6.97;1.48;;;16.20;85.60;;;;;;4986379;28;20314;-67
2023/07/20 10:05:37;;;;;;;6.20;1.63;;;16.40;86.10;;;;;;4982578;28;20061;-67
2023/07/20 10:08:05;;;;;;;5.43;1.52;;;16.60;85.00;;;;;;4988790;28;20023;-66
2023/07/20 10:10:32;;;;;;;3.85;1.70;;;16.90;85.10;;;;;;4994084;28;20319;-68
2023/07/20 10:12:58;;;;;;;3.78;1.60;;;17.40;84.10;;;;;;4980382;28;20049;-66
2023/07/20 10:15:36;;;;;;;5.80;1.50;;;17.80;82.50;;;;;;4982650;28;20113;-67
2023/07/20 10:18:11;;;;;;;4.70;1.60;;;17.90;82.20;;;;;;4985531;28;20026;-67
2023/07/20 10:20:39;;;;;;;7.25;1.73;;;18.20;81.70;;;;;;4985320;28;20034;-67
2023/07/20 10:23:06;;;;;;;6.10;1.45;;;18.50;81.40;;;;;;4986504;28;20034;-67
2023/07/20 10:25:32;;;;;;;7.40;1.50;;;18.80;79.10;;;;;;4995064;28;20026;-67
2023/07/20 10:27:59;;;;;;;5.15;1.30;;;19.00;78.70;;;;;;4983556;28;20030;-66
2023/07/20 10:30:25;;;;;;;5.35;1.73;;;19.40;77.10;;;;;;4985174;28;20041;-68
2023/07/20 10:32:52;;;;;;;6.38;1.55;;;19.70;76.60;;;;;;4986967;28;20022;-67
2023/07/20 10:35:18;;;;;;;5.40;1.65;;;20.00;75.10;;;;;;4983005;28;20033;-67
2023/07/20 10:37:54;;;;;;;4.65;1.48;;;20.10;76.10;;;;;;4987121;28;20565;-67
2023/07/20 10:40:34;;;;;;;5.05;1.42;;;19.70;75.60;;;;;;4993494;28;20114;-68
2023/07/20 10:43:06;;;;;;;5.25;1.00;;;19.30;74.70;;;;;;4990542;28;20045;-68
2023/07/20 10:45:51;;;;;;;4.18;1.13;;;19.20;71.30;;;;;;4989724;28;20018;-68
2023/07/20 10:48:25;;;;;;;3.30;0.80;;;20.10;69.40;;;;;;4994381;28;20046;-70
2023/07/20 10:51:16;;;;;;;3.97;1.23;;;20.70;66.40;;;;;;4980967;28;20169;-68
2023/07/20 10:53:42;;;;;;;;;;;21.00;66.20;;;;;;4985364;28;20038;-67
2023/07/20 10:56:15;;;;;;;2.92;0.90;;;20.90;68.10;;;;;;4986711;28;19931;-68
2023/07/20 10:58:41;;;;;;;6.22;1.20;;;20.00;69.30;;;;;;4984673;28;20105;-68
2023/07/20 11:01:08;;;;;;;6.43;1.25;;;20.00;73.00;;;;;;4989479;28;20038;-67
2023/07/20 11:03:39;;;;;;;4.50;1.25;;;19.90;72.50;;;;;;4987066;28;20050;-68
2023/07/20 11:06:23;;;;;;;5.72;1.33;;;20.20;73.30;;;;;;4989744;28;20105;-69
2023/07/20 11:08:54;;;;;;;4.88;0.93;;;20.10;71.20;;;;;;4991500;28;20040;-68
2023/07/20 11:11:26;;;;;;;;;;;20.60;70.70;;;;;;4991763;28;20375;-68
2023/07/20 11:14:05;;;;;;;2.25;1.10;;;20.50;68.60;;;;;;4987877;28;19906;-67
2023/07/20 11:16:43;;;;;;;3.65;1.05;;;20.60;69.80;;;;;;4981698;28;20041;-69
2023/07/20 11:19:20;;;;;;;4.30;0.85;;;20.60;69.00;;;;;;4985339;28;20022;-67
2023/07/20 11:21:50;;;;;;;7.35;1.00;;;20.90;68.10;;;;;;4989759;28;20033;-68
2023/07/20 11:24:16;;;;;;;5.10;0.80;;;20.70;70.20;;;;;;4990301;28;20442;-67
2023/07/20 11:26:43;;;;;;;4.43;0.90;;;20.10;68.90;;;;;;4994089;28;20180;-67
2023/07/20 11:29:08;;;;;;;3.60;1.00;;;19.70;69.20;;;;;;4991894;28;20354;-66
2023/07/20 11:31:41;;;;;;;4.75;1.25;;;19.10;71.40;;;;;;4988596;28;20038;-66
2023/07/20 11:34:13;;;;;;;3.88;0.95;;;19.10;72.40;;;;;;4984788;28;20030;-66
2023/07/20 11:36:42;;;;;;;4.38;1.10;;;18.70;73.90;;;;;;4986646;28;20420;-66
2023/07/20 11:39:11;;;;;;;5.25;1.05;;;18.50;74.90;;;;;;4985924;28;20034;-67
2023/07/20 11:41:38;;;;;;;4.28;0.93;;;18.70;73.50;;;;;;4984367;28;20049;-70
2023/07/20 11:44:06;;;;;;;4.38;0.88;;;18.90;72.90;;;;;;4987226;28;20030;-66
2023/07/20 11:46:32;;;;;;;3.03;0.70;;;19.30;71.80;;;;;;4986657;28;20164;-70
2023/07/20 11:49:01;;;;;;;2.50;0.80;;;18.40;68.20;;;;;;4989053;28;20026;-66
2023/07/20 11:51:29;;;;;;;6.60;0.82;;;18.20;69.30;;;;;;4984169;28;20034;-67
2023/07/20 11:53:55;;;;;;;5.85;1.25;;;18.40;73.20;;;;;;4986841;28;20794;-67
2023/07/20 11:56:22;;;;;;;6.32;0.85;;;18.00;80.40;;;;;;4982624;28;20030;-69
2023/07/20 11:58:48;;;;;;;2.53;0.88;;;17.50;81.20;;;;;;4985445;28;20026;-67
2023/07/20 12:01:13;;;;;;;2.33;0.80;;;17.40;83.40;;;;;;4985411;28;20088;-68
2023/07/20 12:03:39;;;;;;;5.68;0.98;;;17.50;82.70;;;;;;4981652;28;20042;-67
2023/07/20 12:06:08;;;;;;;7.90;1.20;;;17.50;82.20;;;;;;4982225;28;20038;-66
2023/07/20 12:08:34;;;;;;;2.70;0.80;;;17.60;83.30;;;;;;4984492;28;20030;-66
2023/07/20 12:11:00;;;;;;;3.10;0.80;;;17.70;81.70;;;;;;4985404;28;20701;-66
2023/07/20 12:13:44;;;;;;;5.50;1.00;;;18.00;80.30;;;;;;4984840;28;20173;-67
2023/07/20 12:16:14;;;;;;;3.90;0.88;;;18.00;79.50;;;;;;4983143;28;20038;-67
2023/07/20 12:18:41;;;;;;;1.75;0.60;;;18.50;79.40;;;;;;4985825;28;20550;-67
2023/07/20 12:21:08;;;;;;;1.92;0.60;;;19.00;79.50;;;;;;4989361;28;20084;-67
2023/07/20 12:23:41;;;;;;;4.55;0.98;;;19.10;79.30;;;;;;4988379;28;20309;-67
2023/07/20 12:26:10;;;;;;;6.30;1.00;;;19.60;76.90;;;;;;4988167;28;20031;-70
2023/07/20 12:28:40;;;;;;;4.88;0.75;;;20.40;77.00;;;;;;4988762;28;20088;-71
2023/07/20 12:31:06;;;;;;;3.55;0.77;;;20.50;72.10;;;;;;4984052;28;20026;-67
2023/07/20 12:33:32;;;;;;;2.45;0.73;;;20.90;74.50;;;;;;4984615;28;20030;-68
2023/07/20 12:35:59;;;;;;;2.83;0.90;;;21.40;70.20;;;;;;4983705;28;20057;-68
2023/07/20 12:38:25;;;;;;;1.30;0.60;;;21.20;70.00;;;;;;4984355;28;20080;-68
2023/07/20 12:40:50;;;;;;;4.53;0.90;;;21.50;67.90;;;;;;4982691;28;20026;-69
2023/07/20 12:43:16;;;;;;;5.20;0.77;;;20.90;68.60;;;;;;4984324;28;20057;-69
2023/07/20 12:45:42;;;;;;;4.80;0.70;;;20.30;71.60;;;;;;4984923;28;20064;-67